sensor_id;sensor_type;location;lat;lon;timestamp;temperature;humidity
3005;DHT22;1512;51.486;6.610;2024-03-23T00:54:36;7.30;1.00
3005;DHT22;1512;51.486;6.610;2024-03-23T00:58:45;7.30;1.00
3005;DHT22;1512;51.486;6.610;2024-03-23T01:02:53;7.20;1.00
3005;DHT22;1512;51.486;6.610;2024-03-23T01:07:02;7.20;1.00
3005;DHT22;1512;51.486;6.610;2024-03-23T01:11:10;7.30;1.00
3005;DHT22;1512;51.486;6.610;2024-03-23T01:15:19;7.40;1.00
3005;DHT22;1512;51.486;6.610;2024-03-23T01:19:28;7.60;1.00
3005;DHT22;1512;51.486;6.610;2024-03-23T01:23:37;7.80;1.00
3005;DHT22;1512;51.486;6.610;2024-03-23T01:27:45;7.90;1.00
3005;DHT22;1512;51.486;6.610;2024-03-23T01:31:54;7.90;1.00
3005;DHT22;1512;51.486;6.610;2024-03-23T01:36:03;7.90;1.00
3005;DHT22;1512;51.486;6.610;2024-03-23T01:40:12;8.00;1.00
3005;DHT22;1512;51.486;6.610;2024-03-23T01:44:22;7.90;1.00
3005;DHT22;1512;51.486;6.610;2024-03-23T01:48:30;7.90;1.00
3005;DHT22;1512;51.486;6.610;2024-03-23T01:52:39;7.90;1.00
3005;DHT22;1512;51.486;6.610;2024-03-23T01:56:48;7.90;1.00
3005;DHT22;1512;51.486;6.610;2024-03-23T02:00:58;7.90;1.00
3005;DHT22;1512;51.486;6.610;2024-03-23T02:05:06;7.90;1.00
3005;DHT22;1512;51.486;6.610;2024-03-23T02:09:16;7.70;1.00
3005;DHT22;1512;51.486;6.610;2024-03-23T02:13:25;7.80;1.00
3005;DHT22;1512;51.486;6.610;2024-03-23T02:17:35;7.80;1.00
3005;DHT22;1512;51.486;6.610;2024-03-23T02:21:43;7.80;1.00
3005;DHT22;1512;51.486;6.610;2024-03-23T02:25:52;7.90;1.00
3005;DHT22;1512;51.486;6.610;2024-03-23T02:30:04;7.90;1.00
3005;DHT22;1512;51.486;6.610;2024-03-23T02:34:13;7.90;1.00
3005;DHT22;1512;51.486;6.610;2024-03-23T02:38:21;7.90;1.00
3005;DHT22;1512;51.486;6.610;2024-03-23T02:42:30;7.90;1.00
3005;DHT22;1512;51.486;6.610;2024-03-23T02:46:39;7.90;1.00
3005;DHT22;1512;51.486;6.610;2024-03-23T02:50:47;7.80;1.00
3005;DHT22;1512;51.486;6.610;2024-03-23T02:54:56;7.80;1.00
3005;DHT22;1512;51.486;6.610;2024-03-23T02:59:05;7.80;1.00
3005;DHT22;1512;51.486;6.610;2024-03-23T03:03:14;7.80;1.00
3005;DHT22;1512;51.486;6.610;2024-03-23T03:07:22;7.80;1.00
3005;DHT22;1512;51.486;6.610;2024-03-23T03:11:31;7.80;1.00
3005;DHT22;1512;51.486;6.610;2024-03-23T03:15:41;7.80;1.00
3005;DHT22;1512;51.486;6.610;2024-03-23T03:19:49;7.80;1.00
3005;DHT22;1512;51.486;6.610;2024-03-23T03:24:00;7.80;1.00
3005;DHT22;1512;51.486;6.610;2024-03-23T03:28:08;7.80;1.00
3005;DHT22;1512;51.486;6.610;2024-03-23T03:32:17;7.70;1.00
3005;DHT22;1512;51.486;6.610;2024-03-23T03:36:26;7.70;1.00
3005;DHT22;1512;51.486;6.610;2024-03-23T03:40:54;7.70;1.00
3005;DHT22;1512;51.486;6.610;2024-03-23T03:45:02;7.70;1.00
3005;DHT22;1512;51.486;6.610;2024-03-23T03:49:11;7.70;1.00
3005;DHT22;1512;51.486;6.610;2024-03-23T03:53:20;7.50;1.00
3005;DHT22;1512;51.486;6.610;2024-03-23T03:57:29;7.60;1.00
3005;DHT22;1512;51.486;6.610;2024-03-23T04:01:37;7.50;1.00
3005;DHT22;1512;51.486;6.610;2024-03-23T04:05:55;7.50;1.00
3005;DHT22;1512;51.486;6.610;2024-03-23T04:10:04;7.40;1.00
3005;DHT22;1512;51.486;6.610;2024-03-23T04:14:14;7.30;1.00
3005;DHT22;1512;51.486;6.610;2024-03-23T04:18:23;7.20;1.00
3005;DHT22;1512;51.486;6.610;2024-03-23T04:22:32;7.20;1.00
3005;DHT22;1512;51.486;6.610;2024-03-23T04:26:42;7.30;1.00
3005;DHT22;1512;51.486;6.610;2024-03-23T04:30:50;7.30;1.00
3005;DHT22;1512;51.486;6.610;2024-03-23T04:35:18;7.20;1.00
3005;DHT22;1512;51.486;6.610;2024-03-23T04:39:29;7.20;1.00
3005;DHT22;1512;51.486;6.610;2024-03-23T04:43:37;7.30;1.00
3005;DHT22;1512;51.486;6.610;2024-03-23T04:47:46;7.30;1.00
3005;DHT22;1512;51.486;6.610;2024-03-23T04:51:55;7.30;1.00
3005;DHT22;1512;51.486;6.610;2024-03-23T04:56:03;7.20;1.00
3005;DHT22;1512;51.486;6.610;2024-03-23T05:00:12;7.20;1.00
3005;DHT22;1512;51.486;6.610;2024-03-23T05:04:24;7.20;1.00
3005;DHT22;1512;51.486;6.610;2024-03-23T05:08:33;7.20;1.00
3005;DHT22;1512;51.486;6.610;2024-03-23T05:12:42;7.20;1.00
3005;DHT22;1512;51.486;6.610;2024-03-23T05:17:12;7.30;1.00
3005;DHT22;1512;51.486;6.610;2024-03-23T05:21:21;7.20;1.00
3005;DHT22;1512;51.486;6.610;2024-03-23T05:25:29;7.10;1.00
3005;DHT22;1512;51.486;6.610;2024-03-23T05:29:38;7.10;1.00
3005;DHT22;1512;51.486;6.610;2024-03-23T05:33:47;7.10;81.60
3005;DHT22;1512;51.486;6.610;2024-03-23T05:37:56;7.10;33.40
3005;DHT22;1512;51.486;6.610;2024-03-23T05:42:06;7.10;1.00
3005;DHT22;1512;51.486;6.610;2024-03-23T05:46:17;7.00;1.00
3005;DHT22;1512;51.486;6.610;2024-03-23T05:50:25;7.00;1.00
3005;DHT22;1512;51.486;6.610;2024-03-23T05:54:34;6.90;1.00
3005;DHT22;1512;51.486;6.610;2024-03-23T05:58:43;6.90;1.00
3005;DHT22;1512;51.486;6.610;2024-03-23T06:02:51;6.80;1.00
3005;DHT22;1512;51.486;6.610;2024-03-23T06:11:21;6.80;1.00
3005;DHT22;1512;51.486;6.610;2024-03-23T06:15:30;6.80;1.00
3005;DHT22;1512;51.486;6.610;2024-03-23T06:19:39;6.80;1.00
3005;DHT22;1512;51.486;6.610;2024-03-23T06:23:47;6.70;1.00
3005;DHT22;1512;51.486;6.610;2024-03-23T06:27:58;6.70;1.00
3005;DHT22;1512;51.486;6.610;2024-03-23T06:32:07;6.70;1.00
3005;DHT22;1512;51.486;6.610;2024-03-23T06:36:16;6.80;1.00
3005;DHT22;1512;51.486;6.610;2024-03-23T06:40:26;6.80;1.00
3005;DHT22;1512;51.486;6.610;2024-03-23T06:44:34;6.90;1.00
3005;DHT22;1512;51.486;6.610;2024-03-23T06:48:45;6.80;1.00
3005;DHT22;1512;51.486;6.610;2024-03-23T06:52:53;6.80;1.00
3005;DHT22;1512;51.486;6.610;2024-03-23T06:57:02;6.90;1.00
3005;DHT22;1512;51.486;6.610;2024-03-23T07:01:11;6.90;1.00
3005;DHT22;1512;51.486;6.610;2024-03-23T07:05:19;6.90;99.90
3005;DHT22;1512;51.486;6.610;2024-03-23T07:09:31;7.00;51.50
3005;DHT22;1512;51.486;6.610;2024-03-23T07:13:39;7.00;54.60
3005;DHT22;1512;51.486;6.610;2024-03-23T07:17:48;7.00;73.30
3005;DHT22;1512;51.486;6.610;2024-03-23T07:21:57;7.10;76.40
3005;DHT22;1512;51.486;6.610;2024-03-23T07:26:05;7.20;1.00
3005;DHT22;1512;51.486;6.610;2024-03-23T07:30:15;7.20;1.00
3005;DHT22;1512;51.486;6.610;2024-03-23T07:34:24;7.20;1.00
3005;DHT22;1512;51.486;6.610;2024-03-23T07:38:32;7.30;1.00
3005;DHT22;1512;51.486;6.610;2024-03-23T07:42:41;7.40;1.00
3005;DHT22;1512;51.486;6.610;2024-03-23T07:46:49;7.50;1.00
3005;DHT22;1512;51.486;6.610;2024-03-23T07:51:03;7.50;1.00
3005;DHT22;1512;51.486;6.610;2024-03-23T07:55:12;7.60;1.00
3005;DHT22;1512;51.486;6.610;2024-03-23T07:59:20;7.70;1.00
3005;DHT22;1512;51.486;6.610;2024-03-23T08:03:29;7.80;1.00
3005;DHT22;1512;51.486;6.610;2024-03-23T08:07:37;7.80;1.00
3005;DHT22;1512;51.486;6.610;2024-03-23T08:11:46;8.00;1.00
3005;DHT22;1512;51.486;6.610;2024-03-23T08:15:59;8.10;1.00
3005;DHT22;1512;51.486;6.610;2024-03-23T08:20:08;8.30;1.00
3005;DHT22;1512;51.486;6.610;2024-03-23T08:24:17;8.40;1.00
3005;DHT22;1512;51.486;6.610;2024-03-23T08:28:27;8.30;1.00
3005;DHT22;1512;51.486;6.610;2024-03-23T08:32:37;8.40;1.00
3005;DHT22;1512;51.486;6.610;2024-03-23T08:36:45;8.40;1.00
3005;DHT22;1512;51.486;6.610;2024-03-23T08:40:58;8.30;1.00
3005;DHT22;1512;51.486;6.610;2024-03-23T08:45:07;8.30;1.00
3005;DHT22;1512;51.486;6.610;2024-03-23T08:49:15;8.40;99.90
3005;DHT22;1512;51.486;6.610;2024-03-23T08:53:24;8.60;1.00
3005;DHT22;1512;51.486;6.610;2024-03-23T08:57:33;8.80;99.90
3005;DHT22;1512;51.486;6.610;2024-03-23T09:01:41;8.90;1.00
3005;DHT22;1512;51.486;6.610;2024-03-23T09:05:53;9.00;1.00
3005;DHT22;1512;51.486;6.610;2024-03-23T09:10:02;9.10;99.90
3005;DHT22;1512;51.486;6.610;2024-03-23T09:14:11;9.00;99.90
3005;DHT22;1512;51.486;6.610;2024-03-23T09:18:20;8.90;99.90
3005;DHT22;1512;51.486;6.610;2024-03-23T09:22:28;9.00;1.00
3005;DHT22;1512;51.486;6.610;2024-03-23T09:26:37;9.10;1.00
3005;DHT22;1512;51.486;6.610;2024-03-23T09:30:46;9.30;99.90
3005;DHT22;1512;51.486;6.610;2024-03-23T09:34:54;9.40;99.90
3005;DHT22;1512;51.486;6.610;2024-03-23T09:39:03;9.60;99.90
3005;DHT22;1512;51.486;6.610;2024-03-23T09:43:13;9.70;99.90
3005;DHT22;1512;51.486;6.610;2024-03-23T09:47:21;10.00;99.90
3005;DHT22;1512;51.486;6.610;2024-03-23T09:51:31;10.10;99.90
3005;DHT22;1512;51.486;6.610;2024-03-23T09:55:41;10.00;99.90
3005;DHT22;1512;51.486;6.610;2024-03-23T09:59:50;9.90;99.90
3005;DHT22;1512;51.486;6.610;2024-03-23T10:03:59;9.90;99.90
3005;DHT22;1512;51.486;6.610;2024-03-23T10:08:18;10.00;99.90
3005;DHT22;1512;51.486;6.610;2024-03-23T10:12:27;10.10;99.90
3005;DHT22;1512;51.486;6.610;2024-03-23T10:16:35;10.10;99.90
3005;DHT22;1512;51.486;6.610;2024-03-23T10:20:47;10.20;99.90
3005;DHT22;1512;51.486;6.610;2024-03-23T10:24:56;10.00;99.90
3005;DHT22;1512;51.486;6.610;2024-03-23T10:29:06;9.60;99.90
3005;DHT22;1512;51.486;6.610;2024-03-23T10:33:20;8.90;99.90
3005;DHT22;1512;51.486;6.610;2024-03-23T10:37:29;8.40;99.90
3005;DHT22;1512;51.486;6.610;2024-03-23T10:41:38;8.10;99.90
3005;DHT22;1512;51.486;6.610;2024-03-23T10:45:49;8.10;99.90
3005;DHT22;1512;51.486;6.610;2024-03-23T10:49:58;8.00;99.90
3005;DHT22;1512;51.486;6.610;2024-03-23T10:54:07;8.10;99.90
3005;DHT22;1512;51.486;6.610;2024-03-23T10:58:35;8.10;99.90
3005;DHT22;1512;51.486;6.610;2024-03-23T11:02:37;8.30;99.90
3005;DHT22;1512;51.486;6.610;2024-03-23T11:06:46;8.50;99.90
3005;DHT22;1512;51.486;6.610;2024-03-23T11:15:18;8.50;99.90
3005;DHT22;1512;51.486;6.610;2024-03-23T11:19:37;8.50;99.90
3005;DHT22;1512;51.486;6.610;2024-03-23T11:23:46;8.80;99.90
3005;DHT22;1512;51.486;6.610;2024-03-23T11:28:11;9.10;99.90
3005;DHT22;1512;51.486;6.610;2024-03-23T11:32:39;9.40;99.90
3005;DHT22;1512;51.486;6.610;2024-03-23T11:36:48;9.60;99.90
3005;DHT22;1512;51.486;6.610;2024-03-23T11:41:02;10.00;99.90
3005;DHT22;1512;51.486;6.610;2024-03-23T11:45:11;10.10;99.90
3005;DHT22;1512;51.486;6.610;2024-03-23T11:49:28;9.90;99.90
3005;DHT22;1512;51.486;6.610;2024-03-23T11:53:37;9.60;99.90
3005;DHT22;1512;51.486;6.610;2024-03-23T11:57:47;9.50;99.90
3005;DHT22;1512;51.486;6.610;2024-03-23T12:01:57;9.30;99.90
3005;DHT22;1512;51.486;6.610;2024-03-23T12:06:05;9.60;99.90
3005;DHT22;1512;51.486;6.610;2024-03-23T12:10:18;9.70;99.90
3005;DHT22;1512;51.486;6.610;2024-03-23T12:14:26;9.90;99.90
3005;DHT22;1512;51.486;6.610;2024-03-23T12:18:41;10.10;99.90
3005;DHT22;1512;51.486;6.610;2024-03-23T12:22:50;10.20;99.90
3005;DHT22;1512;51.486;6.610;2024-03-23T12:27:03;9.90;99.90
3005;DHT22;1512;51.486;6.610;2024-03-23T12:31:14;9.60;99.90
3005;DHT22;1512;51.486;6.610;2024-03-23T12:35:23;9.50;99.90
3005;DHT22;1512;51.486;6.610;2024-03-23T12:39:31;9.20;99.90
3005;DHT22;1512;51.486;6.610;2024-03-23T12:43:40;8.50;99.90
3005;DHT22;1512;51.486;6.610;2024-03-23T12:47:49;8.20;99.90
3005;DHT22;1512;51.486;6.610;2024-03-23T12:51:59;8.20;99.90
3005;DHT22;1512;51.486;6.610;2024-03-23T12:56:13;8.30;99.90
3005;DHT22;1512;51.486;6.610;2024-03-23T13:00:23;8.30;99.90
3005;DHT22;1512;51.486;6.610;2024-03-23T13:04:32;8.30;99.90
3005;DHT22;1512;51.486;6.610;2024-03-23T13:08:40;8.30;99.90
3005;DHT22;1512;51.486;6.610;2024-03-23T13:12:50;8.10;99.90
3005;DHT22;1512;51.486;6.610;2024-03-23T13:16:59;7.60;99.90
3005;DHT22;1512;51.486;6.610;2024-03-23T13:21:09;7.30;99.90
3005;DHT22;1512;51.486;6.610;2024-03-23T13:25:20;7.50;99.90
3005;DHT22;1512;51.486;6.610;2024-03-23T13:29:29;7.50;99.90
3005;DHT22;1512;51.486;6.610;2024-03-23T13:33:37;7.50;99.90
3005;DHT22;1512;51.486;6.610;2024-03-23T13:37:47;7.60;99.90
3005;DHT22;1512;51.486;6.610;2024-03-23T13:41:56;7.80;99.90
3005;DHT22;1512;51.486;6.610;2024-03-23T13:46:05;8.20;99.90
3005;DHT22;1512;51.486;6.610;2024-03-23T13:50:13;8.50;99.90
3005;DHT22;1512;51.486;6.610;2024-03-23T13:54:22;8.80;99.90
3005;DHT22;1512;51.486;6.610;2024-03-23T13:58:31;9.10;99.90
3005;DHT22;1512;51.486;6.610;2024-03-23T14:02:40;9.10;99.90
3005;DHT22;1512;51.486;6.610;2024-03-23T14:06:49;8.90;99.90
3005;DHT22;1512;51.486;6.610;2024-03-23T14:10:57;8.80;99.90
3005;DHT22;1512;51.486;6.610;2024-03-23T14:15:06;8.80;99.90
3005;DHT22;1512;51.486;6.610;2024-03-23T14:19:16;9.00;99.90
3005;DHT22;1512;51.486;6.610;2024-03-23T14:23:27;9.40;99.90
3005;DHT22;1512;51.486;6.610;2024-03-23T14:27:44;9.50;99.90
3005;DHT22;1512;51.486;6.610;2024-03-23T14:31:53;9.40;99.90
3005;DHT22;1512;51.486;6.610;2024-03-23T14:36:02;9.20;99.90
3005;DHT22;1512;51.486;6.610;2024-03-23T14:40:12;9.10;99.90
3005;DHT22;1512;51.486;6.610;2024-03-23T14:44:20;8.90;99.90
3005;DHT22;1512;51.486;6.610;2024-03-23T14:48:29;8.80;99.90
3005;DHT22;1512;51.486;6.610;2024-03-23T14:52:39;8.70;99.90
3005;DHT22;1512;51.486;6.610;2024-03-23T14:56:48;8.90;99.90
3005;DHT22;1512;51.486;6.610;2024-03-23T15:01:03;9.30;99.90
3005;DHT22;1512;51.486;6.610;2024-03-23T15:05:12;9.50;99.90
3005;DHT22;1512;51.486;6.610;2024-03-23T15:09:21;9.50;99.90
3005;DHT22;1512;51.486;6.610;2024-03-23T15:13:29;9.50;99.90
3005;DHT22;1512;51.486;6.610;2024-03-23T15:17:38;9.20;99.90
3005;DHT22;1512;51.486;6.610;2024-03-23T15:21:48;9.10;99.90
3005;DHT22;1512;51.486;6.610;2024-03-23T15:25:58;9.00;99.90
3005;DHT22;1512;51.486;6.610;2024-03-23T15:30:08;9.20;99.90
3005;DHT22;1512;51.486;6.610;2024-03-23T15:34:17;9.20;99.90
3005;DHT22;1512;51.486;6.610;2024-03-23T15:38:31;9.00;99.90
3005;DHT22;1512;51.486;6.610;2024-03-23T15:42:40;8.90;99.90
3005;DHT22;1512;51.486;6.610;2024-03-23T15:46:49;8.60;99.90
3005;DHT22;1512;51.486;6.610;2024-03-23T15:50:59;8.50;99.90
3005;DHT22;1512;51.486;6.610;2024-03-23T15:55:08;8.50;99.90
3005;DHT22;1512;51.486;6.610;2024-03-23T15:59:17;8.60;99.90
3005;DHT22;1512;51.486;6.610;2024-03-23T16:03:27;8.70;99.90
3005;DHT22;1512;51.486;6.610;2024-03-23T16:07:36;8.80;99.90
3005;DHT22;1512;51.486;6.610;2024-03-23T16:11:46;8.80;99.90
3005;DHT22;1512;51.486;6.610;2024-03-23T16:16:02;8.80;99.90
3005;DHT22;1512;51.486;6.610;2024-03-23T16:20:15;8.90;99.90
3005;DHT22;1512;51.486;6.610;2024-03-23T16:24:24;8.90;99.90
3005;DHT22;1512;51.486;6.610;2024-03-23T16:28:34;8.80;99.90
3005;DHT22;1512;51.486;6.610;2024-03-23T16:32:43;8.30;99.90
3005;DHT22;1512;51.486;6.610;2024-03-23T16:36:51;7.80;99.90
3005;DHT22;1512;51.486;6.610;2024-03-23T16:41:02;7.40;99.90
3005;DHT22;1512;51.486;6.610;2024-03-23T16:45:12;7.10;99.90
3005;DHT22;1512;51.486;6.610;2024-03-23T16:49:20;6.60;99.90
3005;DHT22;1512;51.486;6.610;2024-03-23T16:53:29;6.40;99.90
3005;DHT22;1512;51.486;6.610;2024-03-23T16:57:38;6.40;99.90
3005;DHT22;1512;51.486;6.610;2024-03-23T17:01:46;6.30;99.90
3005;DHT22;1512;51.486;6.610;2024-03-23T17:05:55;6.40;99.90
3005;DHT22;1512;51.486;6.610;2024-03-23T17:10:04;6.40;99.90
3005;DHT22;1512;51.486;6.610;2024-03-23T17:14:13;6.40;99.90
3005;DHT22;1512;51.486;6.610;2024-03-23T17:18:22;6.50;99.90
3005;DHT22;1512;51.486;6.610;2024-03-23T17:22:31;6.60;99.90
3005;DHT22;1512;51.486;6.610;2024-03-23T17:26:39;6.70;99.90
3005;DHT22;1512;51.486;6.610;2024-03-23T17:30:49;6.80;99.90
3005;DHT22;1512;51.486;6.610;2024-03-23T17:34:57;6.70;99.90
3005;DHT22;1512;51.486;6.610;2024-03-23T17:39:06;6.60;99.90
3005;DHT22;1512;51.486;6.610;2024-03-23T17:43:16;6.50;99.90
3005;DHT22;1512;51.486;6.610;2024-03-23T17:47:25;6.40;99.90
3005;DHT22;1512;51.486;6.610;2024-03-23T17:51:34;6.40;99.90
3005;DHT22;1512;51.486;6.610;2024-03-23T17:55:43;6.40;99.90
3005;DHT22;1512;51.486;6.610;2024-03-23T17:59:52;6.30;99.90
3005;DHT22;1512;51.486;6.610;2024-03-23T18:04:00;6.30;99.90
3005;DHT22;1512;51.486;6.610;2024-03-23T18:08:09;6.30;99.90
3005;DHT22;1512;51.486;6.610;2024-03-23T18:12:18;6.10;99.90
3005;DHT22;1512;51.486;6.610;2024-03-23T18:16:27;6.20;99.90
3005;DHT22;1512;51.486;6.610;2024-03-23T18:20:36;6.20;99.90
3005;DHT22;1512;51.486;6.610;2024-03-23T18:24:44;6.20;99.90
3005;DHT22;1512;51.486;6.610;2024-03-23T18:28:55;6.20;99.90
3005;DHT22;1512;51.486;6.610;2024-03-23T18:33:03;6.00;99.90
3005;DHT22;1512;51.486;6.610;2024-03-23T18:37:12;6.00;99.90
3005;DHT22;1512;51.486;6.610;2024-03-23T18:41:23;6.00;99.90
3005;DHT22;1512;51.486;6.610;2024-03-23T18:45:32;6.10;99.90
3005;DHT22;1512;51.486;6.610;2024-03-23T18:49:42;6.10;99.90
3005;DHT22;1512;51.486;6.610;2024-03-23T18:53:50;6.10;99.90
3005;DHT22;1512;51.486;6.610;2024-03-23T18:57:59;6.10;99.90
3005;DHT22;1512;51.486;6.610;2024-03-23T19:02:07;6.10;99.90
3005;DHT22;1512;51.486;6.610;2024-03-23T19:06:16;6.10;99.90
3005;DHT22;1512;51.486;6.610;2024-03-23T19:10:24;6.10;99.90
3005;DHT22;1512;51.486;6.610;2024-03-23T19:14:33;6.10;99.90
3005;DHT22;1512;51.486;6.610;2024-03-23T19:18:42;5.90;99.90
3005;DHT22;1512;51.486;6.610;2024-03-23T19:22:51;5.90;99.90
3005;DHT22;1512;51.486;6.610;2024-03-23T19:27:00;6.00;99.90
3005;DHT22;1512;51.486;6.610;2024-03-23T19:31:09;6.10;99.90
3005;DHT22;1512;51.486;6.610;2024-03-23T19:35:19;6.10;99.90
3005;DHT22;1512;51.486;6.610;2024-03-23T19:39:27;6.10;1.00
3005;DHT22;1512;51.486;6.610;2024-03-23T19:43:36;6.00;99.90
3005;DHT22;1512;51.486;6.610;2024-03-23T19:48:04;6.00;1.00
3005;DHT22;1512;51.486;6.610;2024-03-23T19:52:14;6.10;1.00
3005;DHT22;1512;51.486;6.610;2024-03-23T19:56:22;6.10;1.00
3005;DHT22;1512;51.486;6.610;2024-03-23T20:00:31;6.10;1.00
3005;DHT22;1512;51.486;6.610;2024-03-23T20:04:40;5.90;1.00
3005;DHT22;1512;51.486;6.610;2024-03-23T20:08:50;5.80;1.00
3005;DHT22;1512;51.486;6.610;2024-03-23T20:12:58;5.90;1.00
3005;DHT22;1512;51.486;6.610;2024-03-23T20:17:08;5.90;1.00
3005;DHT22;1512;51.486;6.610;2024-03-23T20:21:16;5.80;1.00
3005;DHT22;1512;51.486;6.610;2024-03-23T20:25:25;5.80;1.00
3005;DHT22;1512;51.486;6.610;2024-03-23T20:29:33;5.70;1.00
3005;DHT22;1512;51.486;6.610;2024-03-23T20:33:42;5.60;1.00
3005;DHT22;1512;51.486;6.610;2024-03-23T20:37:51;5.50;1.00
3005;DHT22;1512;51.486;6.610;2024-03-23T20:41:59;5.40;1.00
3005;DHT22;1512;51.486;6.610;2024-03-23T20:46:08;5.30;1.00
3005;DHT22;1512;51.486;6.610;2024-03-23T20:50:17;5.30;1.00
3005;DHT22;1512;51.486;6.610;2024-03-23T20:54:26;5.30;1.00
3005;DHT22;1512;51.486;6.610;2024-03-23T20:58:35;5.30;1.00
3005;DHT22;1512;51.486;6.610;2024-03-23T21:02:51;5.30;1.00
3005;DHT22;1512;51.486;6.610;2024-03-23T21:06:59;5.20;1.00
3005;DHT22;1512;51.486;6.610;2024-03-23T21:11:08;5.10;1.00
3005;DHT22;1512;51.486;6.610;2024-03-23T21:15:17;5.00;1.00
3005;DHT22;1512;51.486;6.610;2024-03-23T21:19:25;5.00;1.00
3005;DHT22;1512;51.486;6.610;2024-03-23T21:23:35;5.00;1.00
3005;DHT22;1512;51.486;6.610;2024-03-23T21:28:03;5.00;1.00
3005;DHT22;1512;51.486;6.610;2024-03-23T21:32:12;5.00;1.00
3005;DHT22;1512;51.486;6.610;2024-03-23T21:36:20;4.90;1.00
3005;DHT22;1512;51.486;6.610;2024-03-23T21:40:29;4.90;1.00
3005;DHT22;1512;51.486;6.610;2024-03-23T21:44:38;4.80;1.00
3005;DHT22;1512;51.486;6.610;2024-03-23T21:48:48;4.80;1.00
3005;DHT22;1512;51.486;6.610;2024-03-23T21:53:16;4.80;1.00
3005;DHT22;1512;51.486;6.610;2024-03-23T21:57:25;4.70;1.00
3005;DHT22;1512;51.486;6.610;2024-03-23T22:01:33;4.70;1.00
3005;DHT22;1512;51.486;6.610;2024-03-23T22:05:42;4.60;1.00
3005;DHT22;1512;51.486;6.610;2024-03-23T22:10:10;4.60;1.00
3005;DHT22;1512;51.486;6.610;2024-03-23T22:14:19;4.60;1.00
3005;DHT22;1512;51.486;6.610;2024-03-23T22:18:28;4.60;1.00
3005;DHT22;1512;51.486;6.610;2024-03-23T22:22:36;4.60;1.00
3005;DHT22;1512;51.486;6.610;2024-03-23T22:26:46;4.70;1.00
3005;DHT22;1512;51.486;6.610;2024-03-23T22:30:58;4.60;1.00
3005;DHT22;1512;51.486;6.610;2024-03-23T22:35:07;4.70;1.00
3005;DHT22;1512;51.486;6.610;2024-03-23T22:39:35;4.80;1.00
3005;DHT22;1512;51.486;6.610;2024-03-23T22:43:44;4.80;1.00
3005;DHT22;1512;51.486;6.610;2024-03-23T22:47:52;4.80;1.00
3005;DHT22;1512;51.486;6.610;2024-03-23T22:52:07;4.80;1.00
3005;DHT22;1512;51.486;6.610;2024-03-23T22:56:15;4.90;1.00
3005;DHT22;1512;51.486;6.610;2024-03-23T23:00:25;4.90;1.00
3005;DHT22;1512;51.486;6.610;2024-03-23T23:04:34;4.90;1.00
3005;DHT22;1512;51.486;6.610;2024-03-23T23:08:43;5.00;1.00
3005;DHT22;1512;51.486;6.610;2024-03-23T23:12:52;4.90;1.00
3005;DHT22;1512;51.486;6.610;2024-03-23T23:17:00;5.00;1.00
3005;DHT22;1512;51.486;6.610;2024-03-23T23:21:09;5.00;1.00
3005;DHT22;1512;51.486;6.610;2024-03-23T23:25:18;5.00;1.00
3005;DHT22;1512;51.486;6.610;2024-03-23T23:29:26;5.00;1.00
3005;DHT22;1512;51.486;6.610;2024-03-23T23:33:35;5.00;1.00
3005;DHT22;1512;51.486;6.610;2024-03-23T23:37:44;5.10;1.00
3005;DHT22;1512;51.486;6.610;2024-03-23T23:41:52;5.00;1.00
3005;DHT22;1512;51.486;6.610;2024-03-23T23:46:01;5.00;1.00
3005;DHT22;1512;51.486;6.610;2024-03-23T23:50:10;5.10;1.00
3005;DHT22;1512;51.486;6.610;2024-03-23T23:54:18;5.10;1.00
3005;DHT22;1512;51.486;6.610;2024-03-23T23:58:29;5.10;1.00
